aviador You're here:

DTTZ Decoded Metar

TOZEUR in TUNISIA
Report Time2018-01-17 01:00:00
UTC Time2018-01-17 01:20:39
Flight Rules vfr VFR
Wind270° at 06 kt
W.Decomp.*RWY 27: 6.0 kt HW 0.1 kt LCW
W.Rank270° ranks 5
Current wind is below 270° avg. (8.6)
Visibility9999 m
Phenomena:N/A
Clouds:N/A
Expected CloudBase > 4,000 ft AGL from Temp-Dew spread
CeilingNone
Temp09°C (ISA -5)
Dew Point-1°C (50% RH)
AAT4.7°C
QNH1024 hPa
Density Alt-633 ft
Elevation305 ft
Report Wrong Elevation
Raw Report
METAR DTTZ 170100Z 27006KT CAVOK 09/M01 Q1024 NOSIG=####018000095####
SAMA21 FIMP 170100

Extra information for DTTZ:More info

Metar Taf Metar & Taf Last 4 Metars F.Rules Stats Wind Profile Meteogram Temp Stats Airport Information Weather charts Add Link Nearby VenuesMetar ALERT Operation Metar Decoded Social comments